Accueil
METAR-TAF:

METAR-TAF

Aéroports :

Aéroport international Léon-Mba

Libreville, Gabon

latitude: 00-27N, longitude: 009-25E, altitude: 12 m

Observation

Le bulletin a été fait il y a 34 minutes, à 07:30 UTC
Vent 9 kt de sud
Température 28°C
Humidité 84%
Pression 1013 hPa
Visibilité 10 km ou plus
Quelques nuages à une hauteur de 1300 ft
Nuages fragmentés à une hauteur de 2100 ft

METAR: FOOL 230730Z 17009KT 9999 FEW013 BKN021 28/25 Q1013 NOSIG

Heure: 09:04 (08:04 UTC)

Prévision

Le bulletin a été fait il y a 3 heures et 4 minutes, à 05:00 UTC
Prévision valable du 23 à 06 UTC au 24 à 12 UTC
Vent 7 kt de sud-ouest
Visibilité 10 km ou plus
Nuages épars à une hauteur de 1200 ft
Quelques nuages à une hauteur de 2000 ft, Cumulonimbus.
Nuages fragmentés à une hauteur de 3300 ft
Probabilité 30% :
Temporairement
du 23 à 21 UTC au 24 à 04 UTC
orage

TAF: FOOL 230500Z 2306/2412 22007KT 9999 SCT012 FEW020CB BKN033 PROB30 TEMPO 2321/2404 TS

Observations et prévisions météorologiques de plus de 4000 aéroports (messages METAR et TAF).

Les stations disponibles sont représentées par des disques jaunes et rouges sur la carte.

Passer la souris dessus pour voir le nom de la station.

Cliquer dessus pour voir les observations et prévisions météorologiques.

Pour changer de carte: cliquez sur les boutons verts avec une croix noire pour zoomer, sur le bouton vert avec un tiret pour effectuer un zoom arrière, ou sur les flèches vertes pour les cartes adjacentes.


METAR-TAF: